Time;durP1;ratioP1;P1;durP2;ratioP2;P2;SDS_P1;SDS_P2;PMS_P1;PMS_P2;Temp;Humidity;BMP_temperature;BMP_pressure;BME280_temperature;BME280_humidity;BME280_pressure;Samples;Min_cycle;Max_cycle;Signal;HPM_P1;HPM_P2
2023/07/07 00:00:39;;;;;;;3.83;3.47;;;;;;;;;;5056001;28;20580;-64
2023/07/07 00:03:07;;;;;;;6.13;5.13;;;;;;;;;;5067215;28;20622;-64
2023/07/07 00:05:36;;;;;;;7.87;3.93;;;;;;;;;;5076407;28;20626;-63
2023/07/07 00:08:04;;;;;;;3.60;3.30;;;;;;;;;;5077713;28;20646;-64
2023/07/07 00:10:32;;;;;;;10.03;3.63;;;;;;;;;;5077285;28;20617;-64
2023/07/07 00:13:01;;;;;;;4.50;3.50;;;;;;;;;;5075979;28;20622;-63
2023/07/07 00:15:30;;;;;;;4.60;3.30;;;;;;;;;;5077107;28;20687;-63
2023/07/07 00:17:58;;;;;;;3.67;3.47;;;;;;;;;;5078027;28;20589;-64
2023/07/07 00:20:27;;;;;;;3.90;3.20;;;;;;;;;;5076136;28;20618;-63
2023/07/07 00:22:58;;;;;;;4.70;3.27;;;;;;;;;;5077511;28;21264;-63
2023/07/07 00:25:26;;;;;;;5.90;4.10;;;;;;;;;;5077197;28;20557;-63
2023/07/07 00:27:54;;;;;;;3.37;3.07;;;;;;;;;;5077143;28;20653;-64
2023/07/07 00:30:23;;;;;;;3.80;3.40;;;;;;;;;;5077031;28;20686;-63
2023/07/07 00:32:52;;;;;;;3.83;3.50;;;;;;;;;;5077584;28;20645;-64
2023/07/07 00:35:20;;;;;;;5.73;4.10;;;;;;;;;;5077400;28;20659;-64
2023/07/07 00:37:48;;;;;;;5.10;3.80;;;;;;;;;;5077352;28;20933;-64
2023/07/07 00:40:19;;;;;;;3.73;3.40;;;;;;;;;;5077017;28;20672;-64
2023/07/07 00:42:47;;;;;;;9.53;3.73;;;;;;;;;;5070322;28;20610;-64
2023/07/07 00:45:17;;;;;;;6.17;3.90;;;;;;;;;;5058841;28;20727;-64
2023/07/07 00:47:47;;;;;;;10.67;3.77;;;;;;;;;;5056618;28;20651;-64
2023/07/07 00:50:17;;;;;;;4.07;3.77;;;;;;;;;;5062058;28;20612;-65
2023/07/07 00:52:46;;;;;;;3.60;3.30;;;;;;;;;;5077249;28;20650;-64
2023/07/07 00:55:16;;;;;;;4.23;3.93;;;;;;;;;;5076562;28;20587;-65
2023/07/07 00:57:45;;;;;;;5.67;4.20;;;;;;;;;;5075732;28;20556;-64
2023/07/07 01:00:14;;;;;;;4.40;4.00;;;;;;;;;;5076683;28;20553;-66
2023/07/07 01:02:44;;;;;;;4.50;3.77;;;;;;;;;;5076076;28;20845;-64
2023/07/07 01:05:12;;;;;;;3.20;3.00;;;;;;;;;;5074975;28;20609;-64
2023/07/07 01:07:45;;;;;;;4.00;3.47;;;;;;;;;;5075312;28;20657;-64
2023/07/07 01:10:13;;;;;;;3.57;3.30;;;;;;;;;;5075910;28;20730;-64
2023/07/07 01:12:41;;;;;;;4.73;4.10;;;;;;;;;;5075942;28;21233;-64
2023/07/07 01:15:10;;;;;;;7.70;4.73;;;;;;;;;;5075984;28;20589;-64
2023/07/07 01:17:42;;;;;;;3.73;3.43;;;;;;;;;;5076733;28;20664;-64
2023/07/07 01:20:14;;;;;;;3.70;3.40;;;;;;;;;;5075281;28;20610;-64
2023/07/07 01:22:58;;;;;;;6.70;3.77;;;;;;;;;;5074853;28;20577;-64
2023/07/07 01:25:31;;;;;;;3.47;3.20;;;;;;;;;;5031629;28;20622;-64
2023/07/07 01:28:10;;;;;;;5.20;3.97;;;;;;;;;;5076247;28;20627;-64
2023/07/07 01:30:42;;;;;;;4.67;3.60;;;;;;;;;;5075803;28;20929;-64
2023/07/07 01:33:12;;;;;;;8.10;3.47;;;;;;;;;;5075182;28;20603;-64
2023/07/07 01:35:40;;;;;;;3.30;3.00;;;;;;;;;;5075446;28;20589;-64
2023/07/07 01:38:23;;;;;;;5.00;3.10;;;;;;;;;;5076370;28;20600;-64
2023/07/07 01:40:56;;;;;;;4.17;3.87;;;;;;;;;;5074869;28;20609;-64
2023/07/07 01:43:27;;;;;;;5.03;3.73;;;;;;;;;;5075680;28;21250;-65
2023/07/07 01:46:00;;;;;;;3.83;3.53;;;;;;;;;;5075430;28;20679;-64
2023/07/07 01:48:31;;;;;;;4.10;3.70;;;;;;;;;;5074591;28;20639;-64
2023/07/07 01:51:00;;;;;;;4.60;4.20;;;;;;;;;;5074302;28;20659;-64
2023/07/07 01:53:30;;;;;;;4.10;3.40;;;;;;;;;;5075119;28;20618;-64
2023/07/07 01:56:00;;;;;;;4.57;4.07;;;;;;;;;;5074986;28;21067;-64
2023/07/07 01:58:30;;;;;;;4.73;4.30;;;;;;;;;;5073410;28;20621;-65
2023/07/07 02:01:00;;;;;;;4.53;3.77;;;;;;;;;;5057221;28;20722;-65
2023/07/07 02:03:29;;;;;;;4.43;3.67;;;;;;;;;;5074100;28;20683;-64
2023/07/07 02:05:57;;;;;;;4.10;3.80;;;;;;;;;;5061510;28;20589;-64
2023/07/07 02:08:25;;;;;;;3.93;3.63;;;;;;;;;;5052976;28;20661;-64
2023/07/07 02:10:53;;;;;;;4.13;3.63;;;;;;;;;;5055539;28;20639;-64
2023/07/07 02:13:21;;;;;;;4.03;3.63;;;;;;;;;;5064564;28;20623;-63
2023/07/07 02:15:51;;;;;;;3.60;3.40;;;;;;;;;;5055145;28;21205;-64
2023/07/07 02:18:21;;;;;;;5.70;3.70;;;;;;;;;;5065349;28;20623;-64
2023/07/07 02:20:49;;;;;;;6.30;4.00;;;;;;;;;;5075358;28;20689;-64
2023/07/07 02:23:17;;;;;;;6.43;4.10;;;;;;;;;;5072886;28;20618;-63
2023/07/07 02:25:46;;;;;;;5.97;4.00;;;;;;;;;;5075418;28;21048;-64
2023/07/07 02:28:14;;;;;;;3.93;3.30;;;;;;;;;;5074053;28;20653;-67
2023/07/07 02:30:42;;;;;;;3.97;3.23;;;;;;;;;;5074429;28;20596;-63
2023/07/07 02:33:10;;;;;;;3.80;3.50;;;;;;;;;;5074662;28;20610;-64
2023/07/07 02:35:41;;;;;;;5.30;3.87;;;;;;;;;;5075412;28;20614;-63
2023/07/07 02:38:09;;;;;;;3.17;2.97;;;;;;;;;;5074942;28;20559;-63
2023/07/07 02:40:37;;;;;;;4.07;3.60;;;;;;;;;;5074324;28;20701;-64
2023/07/07 02:43:05;;;;;;;6.93;3.97;;;;;;;;;;5075083;28;20946;-64
2023/07/07 02:45:35;;;;;;;4.80;3.83;;;;;;;;;;5074012;28;20585;-64
2023/07/07 02:48:03;;;;;;;3.87;3.67;;;;;;;;;;5056335;28;20644;-63
2023/07/07 02:50:32;;;;;;;3.90;3.60;;;;;;;;;;5054116;28;20608;-64
2023/07/07 02:53:01;;;;;;;4.77;3.50;;;;;;;;;;5053825;28;20710;-64
2023/07/07 02:55:30;;;;;;;4.23;3.93;;;;;;;;;;5073167;28;20683;-64
2023/07/07 02:57:58;;;;;;;3.87;3.57;;;;;;;;;;5072574;28;20629;-64
2023/07/07 03:00:28;;;;;;;5.33;3.33;;;;;;;;;;5074304;28;20583;-64
2023/07/07 03:02:56;;;;;;;4.00;3.70;;;;;;;;;;5055617;28;20593;-63
2023/07/07 03:05:24;;;;;;;9.40;3.90;;;;;;;;;;5052247;28;20596;-65
2023/07/07 03:07:53;;;;;;;4.60;4.03;;;;;;;;;;5052918;28;20611;-64
2023/07/07 03:10:22;;;;;;;5.30;3.63;;;;;;;;;;5053395;28;20621;-64
2023/07/07 03:12:50;;;;;;;4.10;3.80;;;;;;;;;;5060774;28;20698;-64
2023/07/07 03:15:20;;;;;;;4.00;3.70;;;;;;;;;;5051726;28;20647;-64
2023/07/07 03:17:49;;;;;;;3.57;3.27;;;;;;;;;;5052469;28;20578;-63
2023/07/07 03:20:26;;;;;;;3.70;3.50;;;;;;;;;;5068994;28;20611;-64
2023/07/07 03:22:56;;;;;;;4.43;3.60;;;;;;;;;;5052038;28;20585;-64
2023/07/07 03:25:27;;;;;;;5.30;4.23;;;;;;;;;;5067910;28;20621;-64
2023/07/07 03:27:55;;;;;;;5.87;4.90;;;;;;;;;;5072525;28;21016;-64
2023/07/07 03:30:34;;;;;;;6.43;4.43;;;;;;;;;;5072266;28;20582;-64
2023/07/07 03:33:08;;;;;;;7.37;4.40;;;;;;;;;;5071823;28;21060;-63
2023/07/07 03:35:37;;;;;;;4.33;3.93;;;;;;;;;;5071938;28;21201;-64
2023/07/07 03:38:05;;;;;;;5.90;4.20;;;;;;;;;;5065235;28;20623;-64
2023/07/07 03:40:35;;;;;;;4.57;4.00;;;;;;;;;;5055214;28;20614;-65
2023/07/07 03:43:03;;;;;;;3.93;3.53;;;;;;;;;;5056731;28;20596;-64
2023/07/07 03:45:35;;;;;;;6.13;4.00;;;;;;;;;;5054569;28;21141;-64
2023/07/07 03:48:05;;;;;;;4.27;3.70;;;;;;;;;;5054309;28;20562;-64
2023/07/07 03:50:33;;;;;;;5.70;3.97;;;;;;;;;;5055851;28;20678;-64
2023/07/07 03:53:03;;;;;;;4.57;4.20;;;;;;;;;;5038194;28;20586;-65
2023/07/07 03:55:32;;;;;;;4.20;3.90;;;;;;;;;;5070480;28;20611;-64
2023/07/07 03:58:01;;;;;;;6.07;4.47;;;;;;;;;;5054604;28;20630;-64
2023/07/07 04:00:30;;;;;;;4.40;4.10;;;;;;;;;;5057413;28;20591;-64
2023/07/07 04:02:58;;;;;;;4.20;3.90;;;;;;;;;;5074414;28;20674;-64
2023/07/07 04:05:26;;;;;;;5.40;4.47;;;;;;;;;;5074465;28;20646;-64
2023/07/07 04:07:55;;;;;;;5.77;4.10;;;;;;;;;;5074212;28;20622;-63
2023/07/07 04:10:23;;;;;;;4.17;3.80;;;;;;;;;;5075391;28;20651;-64
2023/07/07 04:12:51;;;;;;;6.53;4.80;;;;;;;;;;5075096;28;21246;-64
2023/07/07 04:15:21;;;;;;;4.00;3.70;;;;;;;;;;5075962;28;20619;-64
2023/07/07 04:17:49;;;;;;;4.23;3.83;;;;;;;;;;5075851;28;20633;-63
2023/07/07 04:20:17;;;;;;;4.10;3.80;;;;;;;;;;5073756;28;20609;-64
2023/07/07 04:22:45;;;;;;;4.23;3.90;;;;;;;;;;5073951;28;20633;-66
2023/07/07 04:25:15;;;;;;;6.10;4.20;;;;;;;;;;5059162;28;20622;-67
2023/07/07 04:27:44;;;;;;;5.80;5.23;;;;;;;;;;5062078;28;20693;-64
2023/07/07 04:30:13;;;;;;;6.23;4.50;;;;;;;;;;5075334;28;20628;-63
2023/07/07 04:32:42;;;;;;;5.63;3.80;;;;;;;;;;5068649;28;20611;-64
2023/07/07 04:35:10;;;;;;;6.30;5.10;;;;;;;;;;5055488;28;21208;-63
2023/07/07 04:37:39;;;;;;;5.90;4.13;;;;;;;;;;5055074;28;21023;-63
2023/07/07 04:40:08;;;;;;;8.20;4.37;;;;;;;;;;5055379;28;20671;-64
2023/07/07 04:42:37;;;;;;;7.00;4.40;;;;;;;;;;5058435;28;20586;-64
2023/07/07 04:45:05;;;;;;;4.37;3.33;;;;;;;;;;5074889;28;20673;-64
2023/07/07 04:47:33;;;;;;;13.63;4.80;;;;;;;;;;5074626;28;21123;-64
2023/07/07 04:50:03;;;;;;;4.73;4.20;;;;;;;;;;5074312;28;20666;-64
2023/07/07 04:52:31;;;;;;;11.70;4.13;;;;;;;;;;5075244;28;20631;-64
2023/07/07 04:55:00;;;;;;;6.10;3.60;;;;;;;;;;5075126;28;20597;-64
2023/07/07 04:57:28;;;;;;;6.20;3.73;;;;;;;;;;5063198;28;20646;-64
2023/07/07 04:59:56;;;;;;;10.53;4.20;;;;;;;;;;5074862;28;20577;-64
2023/07/07 05:02:24;;;;;;;8.17;4.50;;;;;;;;;;5073673;28;21159;-64
2023/07/07 05:04:52;;;;;;;8.87;4.97;;;;;;;;;;5073647;28;20941;-64
2023/07/07 05:07:22;;;;;;;6.10;4.30;;;;;;;;;;5073590;28;21063;-63
2023/07/07 05:09:50;;;;;;;8.83;4.43;;;;;;;;;;5075123;28;20641;-63
2023/07/07 05:12:20;;;;;;;5.83;4.23;;;;;;;;;;5071249;28;21054;-65
2023/07/07 05:14:48;;;;;;;7.13;4.77;;;;;;;;;;5070817;28;20671;-64
2023/07/07 05:17:17;;;;;;;6.37;4.60;;;;;;;;;;5075584;28;20724;-64
2023/07/07 05:19:45;;;;;;;6.00;4.47;;;;;;;;;;5076244;28;20692;-64
2023/07/07 05:22:13;;;;;;;3.60;3.30;;;;;;;;;;5075847;28;20885;-64
2023/07/07 05:24:43;;;;;;;4.97;4.57;;;;;;;;;;5075261;28;20604;-64
2023/07/07 05:27:11;;;;;;;5.07;4.00;;;;;;;;;;5073943;28;20618;-64
2023/07/07 05:29:39;;;;;;;4.77;4.20;;;;;;;;;;5075240;28;20636;-64
2023/07/07 05:32:08;;;;;;;12.97;4.10;;;;;;;;;;5074465;28;20601;-64
2023/07/07 05:34:36;;;;;;;4.03;3.70;;;;;;;;;;5075509;28;20698;-63
2023/07/07 05:37:05;;;;;;;4.10;3.80;;;;;;;;;;5076503;28;20689;-64
2023/07/07 05:39:33;;;;;;;8.47;4.30;;;;;;;;;;5074844;28;20618;-63
2023/07/07 05:42:02;;;;;;;5.03;3.53;;;;;;;;;;5073996;28;20608;-63
2023/07/07 05:44:30;;;;;;;4.90;4.50;;;;;;;;;;5074620;28;20680;-64
2023/07/07 05:46:59;;;;;;;12.13;5.37;;;;;;;;;;5075661;28;21144;-64
2023/07/07 05:49:27;;;;;;;5.50;5.03;;;;;;;;;;5072830;28;20690;-64
2023/07/07 05:51:55;;;;;;;8.83;4.73;;;;;;;;;;5074573;28;20701;-64
2023/07/07 05:54:23;;;;;;;5.67;4.40;;;;;;;;;;5074646;28;20964;-64
2023/07/07 05:56:54;;;;;;;5.50;4.20;;;;;;;;;;5072919;28;20697;-64
2023/07/07 05:59:23;;;;;;;5.57;4.57;;;;;;;;;;5070191;28;20665;-65
2023/07/07 06:01:52;;;;;;;4.93;4.50;;;;;;;;;;5071200;28;20618;-65
2023/07/07 06:04:20;;;;;;;4.40;4.10;;;;;;;;;;5071928;28;21144;-66
2023/07/07 06:06:48;;;;;;;6.93;4.40;;;;;;;;;;5072875;28;20636;-66
2023/07/07 06:09:16;;;;;;;6.77;3.93;;;;;;;;;;5072222;28;20621;-65
2023/07/07 06:11:44;;;;;;;4.77;4.23;;;;;;;;;;5068465;28;20676;-65
2023/07/07 06:14:12;;;;;;;6.30;4.47;;;;;;;;;;5069583;28;20641;-64
2023/07/07 06:16:42;;;;;;;4.37;3.97;;;;;;;;;;5065760;28;20753;-64
2023/07/07 06:19:10;;;;;;;4.43;4.03;;;;;;;;;;5080013;28;20651;-63
2023/07/07 06:21:38;;;;;;;6.40;4.60;;;;;;;;;;5087346;28;20618;-64
2023/07/07 06:24:07;;;;;;;5.23;4.77;;;;;;;;;;5078358;28;20697;-65
2023/07/07 06:26:35;;;;;;;6.30;4.70;;;;;;;;;;5075399;28;20713;-63
2023/07/07 06:29:03;;;;;;;4.73;4.27;;;;;;;;;;5074162;28;20618;-64
2023/07/07 06:31:31;;;;;;;5.03;4.53;;;;;;;;;;5073387;28;20628;-62
2023/07/07 06:34:01;;;;;;;5.20;4.70;;;;;;;;;;5072296;28;20632;-62
2023/07/07 06:36:29;;;;;;;5.00;3.70;;;;;;;;;;5071252;28;20636;-63
2023/07/07 06:38:57;;;;;;;8.73;4.37;;;;;;;;;;5075549;28;20717;-63
2023/07/07 06:41:26;;;;;;;5.40;3.70;;;;;;;;;;5069295;28;20955;-64
2023/07/07 06:43:56;;;;;;;4.87;4.37;;;;;;;;;;5063480;28;20622;-63
2023/07/07 06:46:26;;;;;;;4.97;4.13;;;;;;;;;;5069848;28;20937;-64
2023/07/07 06:48:54;;;;;;;4.40;4.10;;;;;;;;;;5069037;28;20628;-63
2023/07/07 06:51:23;;;;;;;8.03;4.10;;;;;;;;;;5070815;28;20765;-63
2023/07/07 06:53:52;;;;;;;6.43;4.70;;;;;;;;;;5069365;28;20614;-64
2023/07/07 06:56:20;;;;;;;4.30;3.90;;;;;;;;;;5070430;28;20686;-63
2023/07/07 06:58:48;;;;;;;8.40;4.63;;;;;;;;;;5061476;28;20662;-63
2023/07/07 07:01:17;;;;;;;6.03;4.73;;;;;;;;;;5066564;28;20629;-64
2023/07/07 07:03:45;;;;;;;5.40;5.00;;;;;;;;;;5069988;28;20634;-65
2023/07/07 07:06:13;;;;;;;4.83;4.37;;;;;;;;;;5071731;28;20626;-66
2023/07/07 07:08:43;;;;;;;5.20;4.70;;;;;;;;;;5071793;28;20618;-66
2023/07/07 07:11:11;;;;;;;14.70;5.20;;;;;;;;;;5073435;28;21001;-65
2023/07/07 07:13:39;;;;;;;6.73;4.60;;;;;;;;;;5075339;28;20634;-65
2023/07/07 07:16:07;;;;;;;5.03;4.63;;;;;;;;;;5073538;28;20626;-63
2023/07/07 07:18:36;;;;;;;11.53;5.00;;;;;;;;;;5073961;28;20607;-64
2023/07/07 07:21:04;;;;;;;8.53;5.30;;;;;;;;;;5074730;28;20622;-65
2023/07/07 07:23:32;;;;;;;5.03;4.63;;;;;;;;;;5073620;28;20622;-64
2023/07/07 07:26:04;;;;;;;5.37;4.90;;;;;;;;;;5057570;28;21204;-64
2023/07/07 07:28:32;;;;;;;8.17;5.10;;;;;;;;;;5074660;28;20601;-64
2023/07/07 07:31:00;;;;;;;7.73;4.93;;;;;;;;;;5072118;28;20654;-64
2023/07/07 07:33:28;;;;;;;5.60;4.03;;;;;;;;;;5073940;28;20687;-63
2023/07/07 07:35:56;;;;;;;6.60;4.60;;;;;;;;;;5075233;28;20626;-66
2023/07/07 07:38:25;;;;;;;17.40;5.37;;;;;;;;;;5074338;28;20847;-68
2023/07/07 07:40:53;;;;;;;6.60;4.37;;;;;;;;;;5074960;28;21175;-67
2023/07/07 07:43:23;;;;;;;5.50;4.97;;;;;;;;;;5074917;28;21046;-66
2023/07/07 07:45:51;;;;;;;8.57;4.30;;;;;;;;;;5072632;28;20687;-66
2023/07/07 07:48:19;;;;;;;11.70;4.67;;;;;;;;;;5073836;28;20637;-64
2023/07/07 07:50:47;;;;;;;5.43;5.03;;;;;;;;;;5073488;28;20659;-65
2023/07/07 07:53:15;;;;;;;7.63;5.50;;;;;;;;;;5075200;28;20980;-65
2023/07/07 07:55:44;;;;;;;5.10;4.60;;;;;;;;;;5073409;28;20634;-68
2023/07/07 07:58:12;;;;;;;5.03;4.63;;;;;;;;;;5074329;28;20657;-66
2023/07/07 08:00:42;;;;;;;7.67;4.93;;;;;;;;;;5072690;28;20630;-65
2023/07/07 08:03:10;;;;;;;5.77;4.77;;;;;;;;;;5073192;28;20934;-65
2023/07/07 08:05:39;;;;;;;5.33;4.93;;;;;;;;;;5071601;28;21229;-64
2023/07/07 08:12:20;;;;;;;8.97;4.40;;;;;;;;;;5053491;28;21207;-64
2023/07/07 08:14:49;;;;;;;5.23;4.77;;;;;;;;;;5067395;28;20614;-64
2023/07/07 08:17:19;;;;;;;5.43;5.13;;;;;;;;;;5077472;28;20709;-64
2023/07/07 08:19:47;;;;;;;4.87;4.40;;;;;;;;;;5073159;28;20629;-65
2023/07/07 08:22:16;;;;;;;4.83;4.53;;;;;;;;;;5074884;28;20683;-65
2023/07/07 08:24:47;;;;;;;5.00;4.60;;;;;;;;;;5074923;28;20622;-65
2023/07/07 08:27:17;;;;;;;5.40;4.90;;;;;;;;;;5074410;28;20586;-63
2023/07/07 08:29:45;;;;;;;4.33;3.77;;;;;;;;;;5077584;28;20709;-65
2023/07/07 08:32:15;;;;;;;5.27;4.50;;;;;;;;;;5072167;28;20658;-66
2023/07/07 08:34:44;;;;;;;5.23;4.83;;;;;;;;;;5072847;28;20622;-67
2023/07/07 08:37:12;;;;;;;5.00;4.63;;;;;;;;;;5073186;28;20634;-67
2023/07/07 08:39:40;;;;;;;4.73;4.33;;;;;;;;;;5072358;28;20691;-66
2023/07/07 08:42:21;;;;;;;6.33;4.57;;;;;;;;;;5072811;28;21184;-67
2023/07/07 08:44:49;;;;;;;10.70;5.40;;;;;;;;;;5071209;28;20582;-64
2023/07/07 08:47:23;;;;;;;5.30;4.77;;;;;;;;;;5071638;28;21051;-67
2023/07/07 08:49:55;;;;;;;6.13;4.63;;;;;;;;;;5071005;28;20614;-66
2023/07/07 08:52:28;;;;;;;5.70;5.20;;;;;;;;;;5070167;28;21210;-66
2023/07/07 08:55:02;;;;;;;6.23;5.77;;;;;;;;;;5071907;28;20606;-66
2023/07/07 08:57:33;;;;;;;5.60;5.20;;;;;;;;;;5069953;28;20624;-67
2023/07/07 09:00:04;;;;;;;10.20;5.07;;;;;;;;;;5057671;28;20600;-66
2023/07/07 09:02:47;;;;;;;5.40;4.90;;;;;;;;;;5066195;28;20625;-67
2023/07/07 09:05:22;;;;;;;7.23;5.70;;;;;;;;;;5071538;28;20705;-65
2023/07/07 09:07:57;;;;;;;6.43;5.83;;;;;;;;;;5065682;28;20983;-65
2023/07/07 09:10:33;;;;;;;5.67;5.17;;;;;;;;;;5071457;28;20653;-64
2023/07/07 09:13:03;;;;;;;6.00;5.60;;;;;;;;;;5070871;28;21207;-63
2023/07/07 09:15:33;;;;;;;5.97;5.47;;;;;;;;;;5070721;28;20729;-65
2023/07/07 09:18:06;;;;;;;6.57;5.77;;;;;;;;;;5070588;28;20622;-63
2023/07/07 09:20:38;;;;;;;7.50;4.60;;;;;;;;;;5070790;28;20618;-64
2023/07/07 09:23:08;;;;;;;8.03;5.77;;;;;;;;;;5071688;28;20625;-64
2023/07/07 09:25:40;;;;;;;7.20;5.43;;;;;;;;;;5072257;28;20632;-64
2023/07/07 09:28:10;;;;;;;6.33;5.83;;;;;;;;;;5071279;28;20671;-68
2023/07/07 09:30:41;;;;;;;6.07;5.53;;;;;;;;;;5070465;28;20611;-65
2023/07/07 09:33:12;;;;;;;5.63;5.23;;;;;;;;;;5069385;28;20666;-66
2023/07/07 09:35:43;;;;;;;6.00;5.43;;;;;;;;;;5070506;28;20579;-66
2023/07/07 09:38:19;;;;;;;8.40;5.93;;;;;;;;;;5070487;28;20846;-64
2023/07/07 09:40:52;;;;;;;7.60;5.87;;;;;;;;;;5068018;28;20618;-66
2023/07/07 09:43:24;;;;;;;9.73;5.17;;;;;;;;;;5070524;28;20602;-66
2023/07/07 09:45:58;;;;;;;5.60;4.93;;;;;;;;;;5071816;28;20972;-66
2023/07/07 09:48:29;;;;;;;5.20;4.90;;;;;;;;;;5071968;28;20960;-65
2023/07/07 09:51:02;;;;;;;6.73;5.90;;;;;;;;;;5071760;28;20635;-65
2023/07/07 09:53:31;;;;;;;9.50;5.00;;;;;;;;;;5071147;28;21023;-65
2023/07/07 09:56:00;;;;;;;9.20;5.70;;;;;;;;;;5068660;28;20987;-63
2023/07/07 09:58:30;;;;;;;6.93;5.60;;;;;;;;;;5050540;28;20659;-63
2023/07/07 10:01:01;;;;;;;5.73;5.33;;;;;;;;;;5049542;28;20627;-63
2023/07/07 10:03:32;;;;;;;6.13;5.73;;;;;;;;;;5049852;28;20967;-64
2023/07/07 10:06:03;;;;;;;6.43;5.30;;;;;;;;;;5049233;28;21187;-63
2023/07/07 10:08:31;;;;;;;6.90;6.20;;;;;;;;;;5047894;28;20639;-63
2023/07/07 10:11:02;;;;;;;7.63;5.83;;;;;;;;;;5050035;28;20727;-63
2023/07/07 10:13:31;;;;;;;9.43;6.10;;;;;;;;;;5050793;28;20643;-63
2023/07/07 10:16:02;;;;;;;6.60;6.10;;;;;;;;;;5050643;28;20676;-62
2023/07/07 10:18:32;;;;;;;6.30;5.80;;;;;;;;;;5050908;28;20855;-64
2023/07/07 10:21:03;;;;;;;7.03;6.43;;;;;;;;;;5050171;28;20658;-63
2023/07/07 10:23:32;;;;;;;6.30;5.80;;;;;;;;;;5049419;28;21157;-64
2023/07/07 10:26:00;;;;;;;6.10;5.60;;;;;;;;;;5049446;28;20719;-63
2023/07/07 10:28:29;;;;;;;6.73;6.10;;;;;;;;;;5049881;28;20685;-64
2023/07/07 10:30:57;;;;;;;8.13;5.97;;;;;;;;;;5048586;28;21219;-63
2023/07/07 10:33:26;;;;;;;7.37;6.77;;;;;;;;;;5032408;28;20659;-63
2023/07/07 10:35:54;;;;;;;8.20;7.40;;;;;;;;;;5048976;28;20619;-64
2023/07/07 10:38:24;;;;;;;6.63;6.17;;;;;;;;;;5050732;28;20631;-64
2023/07/07 10:40:55;;;;;;;6.60;6.20;;;;;;;;;;5049704;28;20621;-63
2023/07/07 10:43:24;;;;;;;7.20;6.70;;;;;;;;;;5050439;28;20612;-63
2023/07/07 10:45:53;;;;;;;8.10;7.40;;;;;;;;;;5051635;28;20626;-64
2023/07/07 10:48:22;;;;;;;7.30;6.60;;;;;;;;;;5035436;28;20630;-64
2023/07/07 10:50:59;;;;;;;7.03;6.63;;;;;;;;;;5052404;28;20894;-64
2023/07/07 10:53:36;;;;;;;9.10;7.87;;;;;;;;;;5054303;28;20965;-63
2023/07/07 10:56:15;;;;;;;7.80;7.03;;;;;;;;;;5030981;28;20607;-63
2023/07/07 10:58:57;;;;;;;7.67;7.17;;;;;;;;;;5060531;28;20980;-63
2023/07/07 11:01:29;;;;;;;7.93;7.33;;;;;;;;;;5069307;28;20618;-64
2023/07/07 11:04:06;;;;;;;8.10;7.50;;;;;;;;;;5071983;28;20614;-63
2023/07/07 11:06:39;;;;;;;8.07;7.10;;;;;;;;;;5070089;28;21046;-63
2023/07/07 11:09:11;;;;;;;9.20;7.13;;;;;;;;;;5069649;28;20623;-64
2023/07/07 11:11:44;;;;;;;8.10;7.60;;;;;;;;;;5067144;28;20680;-64
2023/07/07 11:14:22;;;;;;;8.10;7.50;;;;;;;;;;5073325;28;20995;-63
2023/07/07 11:16:57;;;;;;;9.40;8.10;;;;;;;;;;5072103;28;20659;-64
2023/07/07 11:19:34;;;;;;;8.03;7.27;;;;;;;;;;5072591;28;21170;-64
2023/07/07 11:22:08;;;;;;;9.90;8.90;;;;;;;;;;5070325;28;20974;-64
2023/07/07 11:24:38;;;;;;;7.80;6.87;;;;;;;;;;5072276;28;21182;-63
2023/07/07 11:27:22;;;;;;;7.70;7.10;;;;;;;;;;5072284;28;20609;-64
2023/07/07 11:29:56;;;;;;;12.37;8.23;;;;;;;;;;5065778;28;20640;-65
2023/07/07 11:32:29;;;;;;;8.17;7.50;;;;;;;;;;5071007;28;20659;-64
2023/07/07 11:35:16;;;;;;;8.33;7.73;;;;;;;;;;5072536;28;20608;-64
2023/07/07 11:37:59;;;;;;;9.30;8.40;;;;;;;;;;5072114;28;20606;-64
2023/07/07 11:40:36;;;;;;;8.70;7.90;;;;;;;;;;5070600;28;20598;-64
2023/07/07 11:43:11;;;;;;;11.43;7.63;;;;;;;;;;5072575;28;20647;-64
2023/07/07 11:45:45;;;;;;;8.80;8.00;;;;;;;;;;5071635;28;20605;-64
2023/07/07 11:48:20;;;;;;;9.00;8.20;;;;;;;;;;5072135;28;20614;-65
2023/07/07 11:50:57;;;;;;;12.70;8.80;;;;;;;;;;5062856;28;20619;-64
2023/07/07 11:53:42;;;;;;;9.47;8.57;;;;;;;;;;5062702;28;20646;-65
2023/07/07 11:56:19;;;;;;;8.50;7.90;;;;;;;;;;5060505;28;20610;-64
2023/07/07 11:58:50;;;;;;;11.43;9.27;;;;;;;;;;5061047;28;20662;-64
2023/07/07 12:01:22;;;;;;;8.97;8.27;;;;;;;;;;5063621;28;20609;-65
2023/07/07 12:03:53;;;;;;;8.70;7.73;;;;;;;;;;5065476;28;20626;-64
2023/07/07 12:06:25;;;;;;;10.63;9.57;;;;;;;;;;5069664;28;20616;-64
2023/07/07 12:09:01;;;;;;;9.47;8.83;;;;;;;;;;5070636;28;20674;-64
2023/07/07 12:11:30;;;;;;;8.87;8.20;;;;;;;;;;5066100;28;20676;-64
2023/07/07 12:14:03;;;;;;;10.87;8.17;;;;;;;;;;5072003;28;20658;-64
2023/07/07 12:16:32;;;;;;;10.20;9.37;;;;;;;;;;5070514;28;20955;-64
2023/07/07 12:19:11;;;;;;;9.10;8.27;;;;;;;;;;5069282;28;20686;-65
2023/07/07 12:21:40;;;;;;;9.77;8.83;;;;;;;;;;5071498;28;20602;-67
2023/07/07 12:24:13;;;;;;;10.10;9.10;;;;;;;;;;5069767;28;20629;-64
2023/07/07 12:26:44;;;;;;;9.23;8.63;;;;;;;;;;5071684;28;20961;-64
2023/07/07 12:29:14;;;;;;;9.93;8.60;;;;;;;;;;5065873;28;20615;-64
2023/07/07 12:31:45;;;;;;;9.80;8.90;;;;;;;;;;5071778;28;20606;-64
2023/07/07 12:34:20;;;;;;;9.50;8.60;;;;;;;;;;5071580;28;21219;-65
2023/07/07 12:36:48;;;;;;;9.93;9.13;;;;;;;;;;5071631;28;20616;-65
2023/07/07 12:39:18;;;;;;;11.13;9.60;;;;;;;;;;5071216;28;20679;-65
2023/07/07 12:41:46;;;;;;;10.43;9.10;;;;;;;;;;5071245;28;20638;-64
2023/07/07 12:44:15;;;;;;;11.27;10.03;;;;;;;;;;5071178;28;20624;-65
2023/07/07 12:46:44;;;;;;;9.90;9.10;;;;;;;;;;5071214;28;20629;-64
2023/07/07 12:49:19;;;;;;;10.23;9.43;;;;;;;;;;5072502;28;20618;-64
2023/07/07 12:51:48;;;;;;;9.67;8.93;;;;;;;;;;5066600;28;20612;-64
2023/07/07 12:54:30;;;;;;;10.10;9.30;;;;;;;;;;5071811;28;20654;-64
2023/07/07 12:57:03;;;;;;;9.80;9.10;;;;;;;;;;5066153;28;20621;-64
2023/07/07 12:59:38;;;;;;;10.50;9.60;;;;;;;;;;5062833;28;20660;-64
2023/07/07 13:02:17;;;;;;;11.00;10.20;;;;;;;;;;5062463;28;20632;-65
2023/07/07 13:04:50;;;;;;;10.60;9.80;;;;;;;;;;5072039;28;20581;-64
2023/07/07 13:07:22;;;;;;;11.57;9.80;;;;;;;;;;5071662;28;20580;-64
2023/07/07 13:09:51;;;;;;;17.30;10.60;;;;;;;;;;5067536;28;20693;-64
2023/07/07 13:12:38;;;;;;;11.67;10.40;;;;;;;;;;5067593;28;20702;-64
2023/07/07 13:15:07;;;;;;;13.60;9.77;;;;;;;;;;5066100;28;20715;-64
2023/07/07 13:17:37;;;;;;;12.07;10.10;;;;;;;;;;5068155;28;20633;-65
2023/07/07 13:20:06;;;;;;;11.23;10.13;;;;;;;;;;5071741;28;20622;-64
2023/07/07 13:22:37;;;;;;;12.30;10.17;;;;;;;;;;5071559;28;20970;-64
2023/07/07 13:25:07;;;;;;;10.70;9.70;;;;;;;;;;5071517;28;20941;-64
2023/07/07 13:27:36;;;;;;;9.93;8.97;;;;;;;;;;5066866;28;21188;-64
2023/07/07 13:30:14;;;;;;;10.37;9.47;;;;;;;;;;5055542;28;20633;-65
2023/07/07 13:32:46;;;;;;;10.30;9.40;;;;;;;;;;5071789;28;20731;-65
2023/07/07 13:35:14;;;;;;;10.07;9.27;;;;;;;;;;5066753;28;20637;-64
2023/07/07 13:37:42;;;;;;;9.97;9.07;;;;;;;;;;5071964;28;20628;-65
2023/07/07 13:40:13;;;;;;;11.27;10.37;;;;;;;;;;5072595;28;20625;-65
2023/07/07 13:42:45;;;;;;;9.77;9.17;;;;;;;;;;5072178;28;20610;-65
2023/07/07 13:45:14;;;;;;;9.93;9.20;;;;;;;;;;5071478;28;20579;-64
2023/07/07 13:47:44;;;;;;;13.07;9.80;;;;;;;;;;5072206;28;21004;-64
2023/07/07 13:50:16;;;;;;;10.30;9.30;;;;;;;;;;5071942;28;20633;-65
2023/07/07 13:52:46;;;;;;;10.40;9.37;;;;;;;;;;5071883;28;20596;-64
2023/07/07 13:55:15;;;;;;;10.73;9.93;;;;;;;;;;5071829;28;20662;-64
2023/07/07 13:57:43;;;;;;;10.90;9.90;;;;;;;;;;5072485;28;20618;-64
2023/07/07 14:00:18;;;;;;;11.13;9.53;;;;;;;;;;5070806;28;20623;-65
2023/07/07 14:02:49;;;;;;;10.50;9.60;;;;;;;;;;5069740;28;20977;-65
2023/07/07 14:05:20;;;;;;;9.97;9.30;;;;;;;;;;5070483;28;20610;-64
2023/07/07 14:07:50;;;;;;;11.17;10.17;;;;;;;;;;5068289;28;20598;-64
2023/07/07 14:10:29;;;;;;;10.83;9.93;;;;;;;;;;5070672;28;21018;-64
2023/07/07 14:12:57;;;;;;;9.50;8.80;;;;;;;;;;5065929;28;20624;-64
2023/07/07 14:15:31;;;;;;;10.67;9.70;;;;;;;;;;5069296;28;21040;-64
2023/07/07 14:18:02;;;;;;;9.50;8.57;;;;;;;;;;5068543;28;20615;-64
2023/07/07 14:20:35;;;;;;;10.30;9.40;;;;;;;;;;5068999;28;20988;-65
2023/07/07 14:23:03;;;;;;;10.73;9.83;;;;;;;;;;5070832;28;21174;-64
2023/07/07 14:25:32;;;;;;;9.23;8.63;;;;;;;;;;5065811;28;20611;-65
2023/07/07 14:28:01;;;;;;;10.10;9.40;;;;;;;;;;5062337;28;20741;-63
2023/07/07 14:30:29;;;;;;;11.17;10.20;;;;;;;;;;5066700;28;20630;-63
2023/07/07 14:33:00;;;;;;;9.53;8.83;;;;;;;;;;5068210;28;20955;-63
2023/07/07 14:35:32;;;;;;;10.20;9.50;;;;;;;;;;5068098;28;20642;-64
2023/07/07 14:38:02;;;;;;;10.60;9.80;;;;;;;;;;5068650;28;20627;-63
2023/07/07 14:40:31;;;;;;;12.03;9.93;;;;;;;;;;5069013;28;20629;-63
2023/07/07 14:43:00;;;;;;;10.57;9.77;;;;;;;;;;5067005;28;20656;-63
2023/07/07 14:45:30;;;;;;;10.20;9.43;;;;;;;;;;5068513;28;20630;-63
2023/07/07 14:47:59;;;;;;;10.47;9.57;;;;;;;;;;5069161;28;20590;-63
2023/07/07 14:50:29;;;;;;;9.93;9.10;;;;;;;;;;5069508;28;20614;-63
2023/07/07 14:52:59;;;;;;;10.33;9.43;;;;;;;;;;5070430;28;20587;-63
2023/07/07 14:55:29;;;;;;;11.93;9.43;;;;;;;;;;5069383;28;20695;-63
2023/07/07 14:57:58;;;;;;;10.80;9.80;;;;;;;;;;5070053;28;21262;-63
2023/07/07 15:00:30;;;;;;;9.80;9.10;;;;;;;;;;5066432;28;20612;-64
2023/07/07 15:02:58;;;;;;;9.87;8.93;;;;;;;;;;5067309;28;20610;-63